sensor_id;sensor_type;location;lat;lon;timestamp;pressure;altitude;pressure_sealevel;temperature
12854;BMP180;6495;51.808;7.478;2023-05-10T00:01:50;100253.00;;;16.50
12854;BMP180;6495;51.808;7.478;2023-05-10T00:04:18;100261.00;;;16.50
12854;BMP180;6495;51.808;7.478;2023-05-10T00:06:47;100254.00;;;16.40
12854;BMP180;6495;51.808;7.478;2023-05-10T00:09:17;100256.00;;;16.40
12854;BMP180;6495;51.808;7.478;2023-05-10T00:11:45;100251.00;;;16.40
12854;BMP180;6495;51.808;7.478;2023-05-10T00:14:13;100250.00;;;16.40
12854;BMP180;6495;51.808;7.478;2023-05-10T00:16:41;100245.00;;;16.30
12854;BMP180;6495;51.808;7.478;2023-05-10T00:19:09;100252.00;;;16.40
12854;BMP180;6495;51.808;7.478;2023-05-10T00:21:38;100249.00;;;16.30
12854;BMP180;6495;51.808;7.478;2023-05-10T00:24:06;100252.00;;;16.30
12854;BMP180;6495;51.808;7.478;2023-05-10T00:26:35;100250.00;;;16.30
12854;BMP180;6495;51.808;7.478;2023-05-10T00:29:03;100249.00;;;16.30
12854;BMP180;6495;51.808;7.478;2023-05-10T00:31:32;100241.00;;;16.20
12854;BMP180;6495;51.808;7.478;2023-05-10T00:34:00;100243.00;;;16.20
12854;BMP180;6495;51.808;7.478;2023-05-10T00:36:28;100238.00;;;16.20
12854;BMP180;6495;51.808;7.478;2023-05-10T00:38:58;100236.00;;;16.20
12854;BMP180;6495;51.808;7.478;2023-05-10T00:41:26;100240.00;;;16.20
12854;BMP180;6495;51.808;7.478;2023-05-10T00:43:55;100248.00;;;16.10
12854;BMP180;6495;51.808;7.478;2023-05-10T00:46:24;100244.00;;;16.10
12854;BMP180;6495;51.808;7.478;2023-05-10T00:48:53;100234.00;;;16.10
12854;BMP180;6495;51.808;7.478;2023-05-10T00:51:21;100243.00;;;16.00
12854;BMP180;6495;51.808;7.478;2023-05-10T00:53:51;100238.00;;;15.90
12854;BMP180;6495;51.808;7.478;2023-05-10T00:56:19;100233.00;;;15.90
12854;BMP180;6495;51.808;7.478;2023-05-10T00:58:50;100238.00;;;15.80
12854;BMP180;6495;51.808;7.478;2023-05-10T01:01:19;100245.00;;;15.70
12854;BMP180;6495;51.808;7.478;2023-05-10T01:03:48;100245.00;;;15.70
12854;BMP180;6495;51.808;7.478;2023-05-10T01:06:16;100247.00;;;15.70
12854;BMP180;6495;51.808;7.478;2023-05-10T01:08:45;100241.00;;;15.60
12854;BMP180;6495;51.808;7.478;2023-05-10T01:11:13;100250.00;;;15.60
12854;BMP180;6495;51.808;7.478;2023-05-10T01:13:47;100251.00;;;15.60
12854;BMP180;6495;51.808;7.478;2023-05-10T01:16:19;100247.00;;;15.60
12854;BMP180;6495;51.808;7.478;2023-05-10T01:18:49;100248.00;;;15.60
12854;BMP180;6495;51.808;7.478;2023-05-10T01:21:25;100246.00;;;15.60
12854;BMP180;6495;51.808;7.478;2023-05-10T01:24:19;100248.00;;;15.70
12854;BMP180;6495;51.808;7.478;2023-05-10T01:27:23;100255.00;;;15.70
12854;BMP180;6495;51.808;7.478;2023-05-10T01:30:31;100251.00;;;15.70
12854;BMP180;6495;51.808;7.478;2023-05-10T01:33:13;100258.00;;;15.70
12854;BMP180;6495;51.808;7.478;2023-05-10T01:35:53;100266.00;;;15.60
12854;BMP180;6495;51.808;7.478;2023-05-10T01:38:34;100260.00;;;15.50
12854;BMP180;6495;51.808;7.478;2023-05-10T01:41:14;100271.00;;;15.40
12854;BMP180;6495;51.808;7.478;2023-05-10T01:43:55;100268.00;;;15.30
12854;BMP180;6495;51.808;7.478;2023-05-10T01:46:34;100266.00;;;15.10
12854;BMP180;6495;51.808;7.478;2023-05-10T01:49:09;100272.00;;;15.10
12854;BMP180;6495;51.808;7.478;2023-05-10T01:51:45;100273.00;;;15.00
12854;BMP180;6495;51.808;7.478;2023-05-10T01:54:19;100274.00;;;15.00
12854;BMP180;6495;51.808;7.478;2023-05-10T01:56:55;100275.00;;;14.90
12854;BMP180;6495;51.808;7.478;2023-05-10T01:59:30;100280.00;;;14.90
12854;BMP180;6495;51.808;7.478;2023-05-10T02:02:01;100279.00;;;14.90
12854;BMP180;6495;51.808;7.478;2023-05-10T02:04:35;100275.00;;;14.90
12854;BMP180;6495;51.808;7.478;2023-05-10T02:07:06;100283.00;;;14.90
12854;BMP180;6495;51.808;7.478;2023-05-10T02:09:36;100291.00;;;14.90
12854;BMP180;6495;51.808;7.478;2023-05-10T02:12:06;100290.00;;;14.90
12854;BMP180;6495;51.808;7.478;2023-05-10T02:14:36;100297.00;;;15.00
12854;BMP180;6495;51.808;7.478;2023-05-10T02:17:07;100292.00;;;15.00
12854;BMP180;6495;51.808;7.478;2023-05-10T02:19:41;100295.00;;;15.00
12854;BMP180;6495;51.808;7.478;2023-05-10T02:22:10;100296.00;;;15.00
12854;BMP180;6495;51.808;7.478;2023-05-10T02:24:40;100295.00;;;14.90
12854;BMP180;6495;51.808;7.478;2023-05-10T02:27:10;100304.00;;;14.90
12854;BMP180;6495;51.808;7.478;2023-05-10T02:29:39;100301.00;;;14.90
12854;BMP180;6495;51.808;7.478;2023-05-10T02:32:11;100301.00;;;14.90
12854;BMP180;6495;51.808;7.478;2023-05-10T02:34:42;100299.00;;;14.90
12854;BMP180;6495;51.808;7.478;2023-05-10T02:37:15;100303.00;;;14.90
12854;BMP180;6495;51.808;7.478;2023-05-10T02:39:46;100294.00;;;14.90
12854;BMP180;6495;51.808;7.478;2023-05-10T02:42:18;100302.00;;;14.90
12854;BMP180;6495;51.808;7.478;2023-05-10T02:44:50;100303.00;;;15.00
12854;BMP180;6495;51.808;7.478;2023-05-10T02:47:20;100299.00;;;14.90
12854;BMP180;6495;51.808;7.478;2023-05-10T02:49:49;100299.00;;;15.00
12854;BMP180;6495;51.808;7.478;2023-05-10T02:52:24;100304.00;;;15.00
12854;BMP180;6495;51.808;7.478;2023-05-10T02:54:59;100299.00;;;15.00
12854;BMP180;6495;51.808;7.478;2023-05-10T02:57:33;100301.00;;;15.00
12854;BMP180;6495;51.808;7.478;2023-05-10T03:00:03;100298.00;;;15.00
12854;BMP180;6495;51.808;7.478;2023-05-10T03:02:32;100290.00;;;15.00
12854;BMP180;6495;51.808;7.478;2023-05-10T03:05:01;100302.00;;;15.10
12854;BMP180;6495;51.808;7.478;2023-05-10T03:07:30;100299.00;;;15.00
12854;BMP180;6495;51.808;7.478;2023-05-10T03:09:58;100296.00;;;15.00
12854;BMP180;6495;51.808;7.478;2023-05-10T03:12:47;100307.00;;;15.10
12854;BMP180;6495;51.808;7.478;2023-05-10T03:15:29;100312.00;;;15.10
12854;BMP180;6495;51.808;7.478;2023-05-10T03:18:06;100305.00;;;15.10
12854;BMP180;6495;51.808;7.478;2023-05-10T03:20:42;100309.00;;;15.10
12854;BMP180;6495;51.808;7.478;2023-05-10T03:23:21;100317.00;;;15.10
12854;BMP180;6495;51.808;7.478;2023-05-10T03:25:50;100307.00;;;15.00
12854;BMP180;6495;51.808;7.478;2023-05-10T03:28:21;100316.00;;;15.00
12854;BMP180;6495;51.808;7.478;2023-05-10T03:30:50;100318.00;;;15.00
12854;BMP180;6495;51.808;7.478;2023-05-10T03:33:20;100330.00;;;15.00
12854;BMP180;6495;51.808;7.478;2023-05-10T03:35:50;100325.00;;;15.00
12854;BMP180;6495;51.808;7.478;2023-05-10T03:38:18;100318.00;;;15.00
12854;BMP180;6495;51.808;7.478;2023-05-10T03:40:46;100334.00;;;15.00
12854;BMP180;6495;51.808;7.478;2023-05-10T03:43:14;100325.00;;;15.00
12854;BMP180;6495;51.808;7.478;2023-05-10T03:45:43;100342.00;;;15.00
12854;BMP180;6495;51.808;7.478;2023-05-10T03:48:11;100345.00;;;15.00
12854;BMP180;6495;51.808;7.478;2023-05-10T03:50:41;100345.00;;;15.00
12854;BMP180;6495;51.808;7.478;2023-05-10T03:53:11;100341.00;;;15.00
12854;BMP180;6495;51.808;7.478;2023-05-10T03:55:39;100351.00;;;15.00
12854;BMP180;6495;51.808;7.478;2023-05-10T03:58:10;100351.00;;;15.00
12854;BMP180;6495;51.808;7.478;2023-05-10T04:00:38;100359.00;;;15.00
12854;BMP180;6495;51.808;7.478;2023-05-10T04:03:11;100353.00;;;15.00
12854;BMP180;6495;51.808;7.478;2023-05-10T04:05:39;100347.00;;;15.00
12854;BMP180;6495;51.808;7.478;2023-05-10T04:08:07;100350.00;;;15.00
12854;BMP180;6495;51.808;7.478;2023-05-10T04:10:37;100354.00;;;15.00
12854;BMP180;6495;51.808;7.478;2023-05-10T04:13:05;100360.00;;;15.00
12854;BMP180;6495;51.808;7.478;2023-05-10T04:15:33;100349.00;;;15.00
12854;BMP180;6495;51.808;7.478;2023-05-10T04:18:02;100352.00;;;15.00
12854;BMP180;6495;51.808;7.478;2023-05-10T04:20:34;100348.00;;;15.00
12854;BMP180;6495;51.808;7.478;2023-05-10T04:23:02;100342.00;;;14.90
12854;BMP180;6495;51.808;7.478;2023-05-10T04:25:33;100344.00;;;15.00
12854;BMP180;6495;51.808;7.478;2023-05-10T04:28:08;100353.00;;;15.00
12854;BMP180;6495;51.808;7.478;2023-05-10T04:30:37;100349.00;;;15.00
12854;BMP180;6495;51.808;7.478;2023-05-10T04:33:05;100359.00;;;15.00
12854;BMP180;6495;51.808;7.478;2023-05-10T04:35:35;100351.00;;;15.00
12854;BMP180;6495;51.808;7.478;2023-05-10T04:38:03;100355.00;;;15.00
12854;BMP180;6495;51.808;7.478;2023-05-10T04:40:31;100351.00;;;15.00
12854;BMP180;6495;51.808;7.478;2023-05-10T04:42:59;100353.00;;;15.00
12854;BMP180;6495;51.808;7.478;2023-05-10T04:45:29;100356.00;;;15.00
12854;BMP180;6495;51.808;7.478;2023-05-10T04:47:57;100357.00;;;15.00
12854;BMP180;6495;51.808;7.478;2023-05-10T04:50:26;100357.00;;;15.00
12854;BMP180;6495;51.808;7.478;2023-05-10T04:52:54;100365.00;;;15.00
12854;BMP180;6495;51.808;7.478;2023-05-10T04:55:37;100372.00;;;15.00
12854;BMP180;6495;51.808;7.478;2023-05-10T04:58:10;100377.00;;;14.90
12854;BMP180;6495;51.808;7.478;2023-05-10T05:00:40;100365.00;;;15.00
12854;BMP180;6495;51.808;7.478;2023-05-10T05:03:09;100376.00;;;15.00
12854;BMP180;6495;51.808;7.478;2023-05-10T05:05:37;100377.00;;;15.00
12854;BMP180;6495;51.808;7.478;2023-05-10T05:08:06;100373.00;;;15.00
12854;BMP180;6495;51.808;7.478;2023-05-10T05:10:34;100377.00;;;15.00
12854;BMP180;6495;51.808;7.478;2023-05-10T05:13:02;100380.00;;;15.00
12854;BMP180;6495;51.808;7.478;2023-05-10T05:15:31;100378.00;;;14.90
12854;BMP180;6495;51.808;7.478;2023-05-10T05:18:00;100382.00;;;14.90
12854;BMP180;6495;51.808;7.478;2023-05-10T05:20:32;100386.00;;;15.00
12854;BMP180;6495;51.808;7.478;2023-05-10T05:23:00;100387.00;;;14.90
12854;BMP180;6495;51.808;7.478;2023-05-10T05:25:29;100391.00;;;14.90
12854;BMP180;6495;51.808;7.478;2023-05-10T05:27:57;100387.00;;;14.90
12854;BMP180;6495;51.808;7.478;2023-05-10T05:30:26;100388.00;;;14.90
12854;BMP180;6495;51.808;7.478;2023-05-10T05:32:54;100390.00;;;14.90
12854;BMP180;6495;51.808;7.478;2023-05-10T05:35:25;100398.00;;;14.90
12854;BMP180;6495;51.808;7.478;2023-05-10T05:37:53;100398.00;;;14.90
12854;BMP180;6495;51.808;7.478;2023-05-10T05:40:21;100396.00;;;14.90
12854;BMP180;6495;51.808;7.478;2023-05-10T05:42:51;100407.00;;;14.90
12854;BMP180;6495;51.808;7.478;2023-05-10T05:45:19;100403.00;;;14.90
12854;BMP180;6495;51.808;7.478;2023-05-10T05:47:48;100396.00;;;14.90
12854;BMP180;6495;51.808;7.478;2023-05-10T05:50:17;100404.00;;;15.00
12854;BMP180;6495;51.808;7.478;2023-05-10T05:52:54;100395.00;;;15.00
12854;BMP180;6495;51.808;7.478;2023-05-10T05:55:24;100407.00;;;15.00
12854;BMP180;6495;51.808;7.478;2023-05-10T05:57:52;100411.00;;;14.90
12854;BMP180;6495;51.808;7.478;2023-05-10T06:00:24;100407.00;;;15.00
12854;BMP180;6495;51.808;7.478;2023-05-10T06:02:53;100408.00;;;15.00
12854;BMP180;6495;51.808;7.478;2023-05-10T06:05:21;100410.00;;;15.00
12854;BMP180;6495;51.808;7.478;2023-05-10T06:07:52;100422.00;;;15.00
12854;BMP180;6495;51.808;7.478;2023-05-10T06:10:24;100423.00;;;15.00
12854;BMP180;6495;51.808;7.478;2023-05-10T06:12:55;100416.00;;;15.00
12854;BMP180;6495;51.808;7.478;2023-05-10T06:15:23;100418.00;;;15.00
12854;BMP180;6495;51.808;7.478;2023-05-10T06:17:52;100420.00;;;15.00
12854;BMP180;6495;51.808;7.478;2023-05-10T06:20:20;100425.00;;;15.00
12854;BMP180;6495;51.808;7.478;2023-05-10T06:22:48;100432.00;;;15.00
12854;BMP180;6495;51.808;7.478;2023-05-10T06:25:19;100432.00;;;15.00
12854;BMP180;6495;51.808;7.478;2023-05-10T06:27:49;100442.00;;;15.00
12854;BMP180;6495;51.808;7.478;2023-05-10T06:30:20;100445.00;;;15.00
12854;BMP180;6495;51.808;7.478;2023-05-10T06:32:53;100449.00;;;15.00
12854;BMP180;6495;51.808;7.478;2023-05-10T06:35:21;100459.00;;;15.00
12854;BMP180;6495;51.808;7.478;2023-05-10T06:37:50;100457.00;;;15.00
12854;BMP180;6495;51.808;7.478;2023-05-10T06:40:19;100450.00;;;15.00
12854;BMP180;6495;51.808;7.478;2023-05-10T06:42:49;100447.00;;;15.00
12854;BMP180;6495;51.808;7.478;2023-05-10T06:45:17;100455.00;;;15.00
12854;BMP180;6495;51.808;7.478;2023-05-10T06:47:46;100455.00;;;15.00
12854;BMP180;6495;51.808;7.478;2023-05-10T06:50:14;100463.00;;;15.00
12854;BMP180;6495;51.808;7.478;2023-05-10T06:52:43;100457.00;;;15.00
12854;BMP180;6495;51.808;7.478;2023-05-10T06:55:11;100453.00;;;15.00
12854;BMP180;6495;51.808;7.478;2023-05-10T06:57:39;100460.00;;;15.00
12854;BMP180;6495;51.808;7.478;2023-05-10T07:00:10;100459.00;;;15.10
12854;BMP180;6495;51.808;7.478;2023-05-10T07:02:38;100464.00;;;15.10
12854;BMP180;6495;51.808;7.478;2023-05-10T07:05:08;100463.00;;;15.20
12854;BMP180;6495;51.808;7.478;2023-05-10T07:07:36;100458.00;;;15.20
12854;BMP180;6495;51.808;7.478;2023-05-10T07:10:06;100465.00;;;15.20
12854;BMP180;6495;51.808;7.478;2023-05-10T07:12:34;100471.00;;;15.30
12854;BMP180;6495;51.808;7.478;2023-05-10T07:15:04;100472.00;;;15.30
12854;BMP180;6495;51.808;7.478;2023-05-10T07:17:34;100470.00;;;15.40
12854;BMP180;6495;51.808;7.478;2023-05-10T07:20:03;100471.00;;;15.40
12854;BMP180;6495;51.808;7.478;2023-05-10T07:22:32;100475.00;;;15.60
12854;BMP180;6495;51.808;7.478;2023-05-10T07:25:00;100479.00;;;15.70
12854;BMP180;6495;51.808;7.478;2023-05-10T07:27:29;100481.00;;;15.80
12854;BMP180;6495;51.808;7.478;2023-05-10T07:29:57;100486.00;;;15.90
12854;BMP180;6495;51.808;7.478;2023-05-10T07:32:25;100483.00;;;16.00
12854;BMP180;6495;51.808;7.478;2023-05-10T07:34:55;100482.00;;;16.10
12854;BMP180;6495;51.808;7.478;2023-05-10T07:37:24;100494.00;;;16.20
12854;BMP180;6495;51.808;7.478;2023-05-10T07:39:52;100492.00;;;16.20
12854;BMP180;6495;51.808;7.478;2023-05-10T07:42:20;100484.00;;;16.20
12854;BMP180;6495;51.808;7.478;2023-05-10T07:44:48;100494.00;;;16.30
12854;BMP180;6495;51.808;7.478;2023-05-10T07:47:17;100487.00;;;16.30
12854;BMP180;6495;51.808;7.478;2023-05-10T07:49:45;100487.00;;;16.30
12854;BMP180;6495;51.808;7.478;2023-05-10T07:52:15;100486.00;;;16.40
12854;BMP180;6495;51.808;7.478;2023-05-10T07:54:44;100489.00;;;16.40
12854;BMP180;6495;51.808;7.478;2023-05-10T07:57:13;100481.00;;;16.40
12854;BMP180;6495;51.808;7.478;2023-05-10T07:59:44;100481.00;;;16.50
12854;BMP180;6495;51.808;7.478;2023-05-10T08:02:15;100483.00;;;16.60
12854;BMP180;6495;51.808;7.478;2023-05-10T08:04:43;100485.00;;;16.70
12854;BMP180;6495;51.808;7.478;2023-05-10T08:07:12;100492.00;;;16.80
12854;BMP180;6495;51.808;7.478;2023-05-10T08:09:42;100488.00;;;17.00
12854;BMP180;6495;51.808;7.478;2023-05-10T08:12:11;100482.00;;;17.10
12854;BMP180;6495;51.808;7.478;2023-05-10T08:14:39;100489.00;;;17.30
12854;BMP180;6495;51.808;7.478;2023-05-10T08:17:09;100496.00;;;17.50
12854;BMP180;6495;51.808;7.478;2023-05-10T08:19:37;100496.00;;;17.70
12854;BMP180;6495;51.808;7.478;2023-05-10T08:22:06;100502.00;;;17.80
12854;BMP180;6495;51.808;7.478;2023-05-10T08:24:34;100509.00;;;17.90
12854;BMP180;6495;51.808;7.478;2023-05-10T08:27:07;100506.00;;;17.90
12854;BMP180;6495;51.808;7.478;2023-05-10T08:29:36;100504.00;;;18.00
12854;BMP180;6495;51.808;7.478;2023-05-10T08:32:16;100510.00;;;18.10
12854;BMP180;6495;51.808;7.478;2023-05-10T08:34:44;100506.00;;;18.10
12854;BMP180;6495;51.808;7.478;2023-05-10T08:37:13;100512.00;;;18.10
12854;BMP180;6495;51.808;7.478;2023-05-10T08:39:41;100519.00;;;18.10
12854;BMP180;6495;51.808;7.478;2023-05-10T08:42:15;100523.00;;;18.10
12854;BMP180;6495;51.808;7.478;2023-05-10T08:44:47;100527.00;;;18.10
12854;BMP180;6495;51.808;7.478;2023-05-10T08:47:18;100524.00;;;18.10
12854;BMP180;6495;51.808;7.478;2023-05-10T08:49:57;100525.00;;;18.10
12854;BMP180;6495;51.808;7.478;2023-05-10T08:52:28;100535.00;;;18.10
12854;BMP180;6495;51.808;7.478;2023-05-10T08:54:58;100532.00;;;18.20
12854;BMP180;6495;51.808;7.478;2023-05-10T08:57:28;100536.00;;;18.30
12854;BMP180;6495;51.808;7.478;2023-05-10T08:59:57;100540.00;;;18.30
12854;BMP180;6495;51.808;7.478;2023-05-10T09:02:26;100544.00;;;18.30
12854;BMP180;6495;51.808;7.478;2023-05-10T09:04:54;100542.00;;;18.30
12854;BMP180;6495;51.808;7.478;2023-05-10T09:07:23;100543.00;;;18.20
12854;BMP180;6495;51.808;7.478;2023-05-10T09:09:52;100551.00;;;18.10
12854;BMP180;6495;51.808;7.478;2023-05-10T09:12:22;100553.00;;;18.10
12854;BMP180;6495;51.808;7.478;2023-05-10T09:14:54;100549.00;;;18.20
12854;BMP180;6495;51.808;7.478;2023-05-10T09:17:24;100550.00;;;18.20
12854;BMP180;6495;51.808;7.478;2023-05-10T09:19:58;100563.00;;;18.30
12854;BMP180;6495;51.808;7.478;2023-05-10T09:22:27;100570.00;;;18.40
12854;BMP180;6495;51.808;7.478;2023-05-10T09:25:07;100561.00;;;18.40
12854;BMP180;6495;51.808;7.478;2023-05-10T09:27:36;100571.00;;;18.50
12854;BMP180;6495;51.808;7.478;2023-05-10T09:30:08;100570.00;;;18.50
12854;BMP180;6495;51.808;7.478;2023-05-10T09:32:39;100557.00;;;18.60
12854;BMP180;6495;51.808;7.478;2023-05-10T09:35:09;100562.00;;;18.60
12854;BMP180;6495;51.808;7.478;2023-05-10T09:37:39;100560.00;;;18.70
12854;BMP180;6495;51.808;7.478;2023-05-10T09:40:14;100574.00;;;18.70
12854;BMP180;6495;51.808;7.478;2023-05-10T09:42:53;100562.00;;;18.80
12854;BMP180;6495;51.808;7.478;2023-05-10T09:45:25;100567.00;;;18.80
12854;BMP180;6495;51.808;7.478;2023-05-10T09:47:54;100562.00;;;18.90
12854;BMP180;6495;51.808;7.478;2023-05-10T09:50:23;100560.00;;;18.90
12854;BMP180;6495;51.808;7.478;2023-05-10T09:52:54;100562.00;;;19.10
12854;BMP180;6495;51.808;7.478;2023-05-10T09:55:38;100573.00;;;19.10
12854;BMP180;6495;51.808;7.478;2023-05-10T09:58:07;100574.00;;;19.10
12854;BMP180;6495;51.808;7.478;2023-05-10T10:00:41;100574.00;;;19.20
12854;BMP180;6495;51.808;7.478;2023-05-10T10:03:14;100579.00;;;19.20
12854;BMP180;6495;51.808;7.478;2023-05-10T10:05:44;100581.00;;;19.30
12854;BMP180;6495;51.808;7.478;2023-05-10T10:08:14;100586.00;;;19.30
12854;BMP180;6495;51.808;7.478;2023-05-10T10:10:43;100581.00;;;19.40
12854;BMP180;6495;51.808;7.478;2023-05-10T10:13:13;100582.00;;;19.30
12854;BMP180;6495;51.808;7.478;2023-05-10T10:15:43;100581.00;;;19.40
12854;BMP180;6495;51.808;7.478;2023-05-10T10:18:13;100575.00;;;19.40
12854;BMP180;6495;51.808;7.478;2023-05-10T10:20:42;100582.00;;;19.40
12854;BMP180;6495;51.808;7.478;2023-05-10T10:23:11;100581.00;;;19.40
12854;BMP180;6495;51.808;7.478;2023-05-10T10:25:42;100575.00;;;19.50
12854;BMP180;6495;51.808;7.478;2023-05-10T10:28:24;100569.00;;;19.60
12854;BMP180;6495;51.808;7.478;2023-05-10T10:31:02;100573.00;;;19.60
12854;BMP180;6495;51.808;7.478;2023-05-10T10:33:55;100575.00;;;19.60
12854;BMP180;6495;51.808;7.478;2023-05-10T10:36:24;100570.00;;;19.70
12854;BMP180;6495;51.808;7.478;2023-05-10T10:39:01;100572.00;;;19.70
12854;BMP180;6495;51.808;7.478;2023-05-10T10:41:33;100583.00;;;19.80
12854;BMP180;6495;51.808;7.478;2023-05-10T10:44:37;100579.00;;;19.90
12854;BMP180;6495;51.808;7.478;2023-05-10T10:47:22;100586.00;;;20.00
12854;BMP180;6495;51.808;7.478;2023-05-10T10:50:06;100578.00;;;20.10
12854;BMP180;6495;51.808;7.478;2023-05-10T10:52:36;100586.00;;;20.20
12854;BMP180;6495;51.808;7.478;2023-05-10T10:55:07;100583.00;;;20.20
12854;BMP180;6495;51.808;7.478;2023-05-10T10:57:48;100583.00;;;20.20
12854;BMP180;6495;51.808;7.478;2023-05-10T11:00:26;100587.00;;;20.10
12854;BMP180;6495;51.808;7.478;2023-05-10T11:02:59;100599.00;;;20.00
12854;BMP180;6495;51.808;7.478;2023-05-10T11:05:41;100597.00;;;20.00
12854;BMP180;6495;51.808;7.478;2023-05-10T11:08:19;100589.00;;;20.00
12854;BMP180;6495;51.808;7.478;2023-05-10T11:11:02;100593.00;;;20.20
12854;BMP180;6495;51.808;7.478;2023-05-10T11:13:34;100596.00;;;20.40
12854;BMP180;6495;51.808;7.478;2023-05-10T11:16:18;100595.00;;;20.40
12854;BMP180;6495;51.808;7.478;2023-05-10T11:18:59;100604.00;;;20.50
12854;BMP180;6495;51.808;7.478;2023-05-10T11:21:30;100607.00;;;20.50
12854;BMP180;6495;51.808;7.478;2023-05-10T11:24:01;100608.00;;;20.50
12854;BMP180;6495;51.808;7.478;2023-05-10T11:26:35;100618.00;;;20.50
12854;BMP180;6495;51.808;7.478;2023-05-10T11:29:04;100606.00;;;20.40
12854;BMP180;6495;51.808;7.478;2023-05-10T11:31:32;100609.00;;;20.40
12854;BMP180;6495;51.808;7.478;2023-05-10T11:34:02;100613.00;;;20.40
12854;BMP180;6495;51.808;7.478;2023-05-10T11:36:35;100611.00;;;20.40
12854;BMP180;6495;51.808;7.478;2023-05-10T11:39:04;100618.00;;;20.40
12854;BMP180;6495;51.808;7.478;2023-05-10T11:41:33;100622.00;;;20.50
12854;BMP180;6495;51.808;7.478;2023-05-10T11:44:02;100625.00;;;20.50
12854;BMP180;6495;51.808;7.478;2023-05-10T11:46:30;100623.00;;;20.50
12854;BMP180;6495;51.808;7.478;2023-05-10T11:49:02;100624.00;;;20.60
12854;BMP180;6495;51.808;7.478;2023-05-10T11:51:34;100620.00;;;20.60
12854;BMP180;6495;51.808;7.478;2023-05-10T11:54:07;100626.00;;;20.60
12854;BMP180;6495;51.808;7.478;2023-05-10T11:56:36;100635.00;;;20.70
12854;BMP180;6495;51.808;7.478;2023-05-10T11:59:05;100637.00;;;20.80
12854;BMP180;6495;51.808;7.478;2023-05-10T12:01:38;100638.00;;;20.80
12854;BMP180;6495;51.808;7.478;2023-05-10T12:04:08;100635.00;;;20.90
12854;BMP180;6495;51.808;7.478;2023-05-10T12:06:40;100643.00;;;21.10
12854;BMP180;6495;51.808;7.478;2023-05-10T12:09:09;100642.00;;;21.10
12854;BMP180;6495;51.808;7.478;2023-05-10T12:11:39;100645.00;;;21.10
12854;BMP180;6495;51.808;7.478;2023-05-10T12:14:10;100656.00;;;21.10
12854;BMP180;6495;51.808;7.478;2023-05-10T12:16:39;100651.00;;;21.10
12854;BMP180;6495;51.808;7.478;2023-05-10T12:19:09;100655.00;;;21.10
12854;BMP180;6495;51.808;7.478;2023-05-10T12:21:37;100657.00;;;21.10
12854;BMP180;6495;51.808;7.478;2023-05-10T12:24:08;100655.00;;;21.10
12854;BMP180;6495;51.808;7.478;2023-05-10T12:26:37;100661.00;;;21.20
12854;BMP180;6495;51.808;7.478;2023-05-10T12:29:13;100659.00;;;21.20
12854;BMP180;6495;51.808;7.478;2023-05-10T12:31:53;100671.00;;;21.30
12854;BMP180;6495;51.808;7.478;2023-05-10T12:34:25;100667.00;;;21.30
12854;BMP180;6495;51.808;7.478;2023-05-10T12:36:56;100658.00;;;21.40
12854;BMP180;6495;51.808;7.478;2023-05-10T12:39:24;100661.00;;;21.50
12854;BMP180;6495;51.808;7.478;2023-05-10T12:41:53;100663.00;;;21.50
12854;BMP180;6495;51.808;7.478;2023-05-10T12:44:21;100661.00;;;21.40
12854;BMP180;6495;51.808;7.478;2023-05-10T12:46:49;100662.00;;;21.50
12854;BMP180;6495;51.808;7.478;2023-05-10T12:49:18;100677.00;;;21.60
12854;BMP180;6495;51.808;7.478;2023-05-10T12:51:48;100669.00;;;21.60
12854;BMP180;6495;51.808;7.478;2023-05-10T12:54:16;100671.00;;;21.70
12854;BMP180;6495;51.808;7.478;2023-05-10T12:56:45;100678.00;;;21.70
12854;BMP180;6495;51.808;7.478;2023-05-10T12:59:13;100673.00;;;21.80
12854;BMP180;6495;51.808;7.478;2023-05-10T13:01:41;100671.00;;;21.90
12854;BMP180;6495;51.808;7.478;2023-05-10T13:04:09;100672.00;;;21.90
12854;BMP180;6495;51.808;7.478;2023-05-10T13:06:38;100670.00;;;21.90
12854;BMP180;6495;51.808;7.478;2023-05-10T13:09:07;100680.00;;;21.80
12854;BMP180;6495;51.808;7.478;2023-05-10T13:11:36;100682.00;;;21.90
12854;BMP180;6495;51.808;7.478;2023-05-10T13:14:04;100682.00;;;21.90
12854;BMP180;6495;51.808;7.478;2023-05-10T13:16:33;100677.00;;;22.00
12854;BMP180;6495;51.808;7.478;2023-05-10T13:19:01;100677.00;;;22.10
12854;BMP180;6495;51.808;7.478;2023-05-10T13:21:30;100676.00;;;22.10
12854;BMP180;6495;51.808;7.478;2023-05-10T13:23:58;100675.00;;;22.00
12854;BMP180;6495;51.808;7.478;2023-05-10T13:26:31;100690.00;;;22.00
12854;BMP180;6495;51.808;7.478;2023-05-10T13:29:00;100687.00;;;22.00
12854;BMP180;6495;51.808;7.478;2023-05-10T13:31:28;100682.00;;;22.10
12854;BMP180;6495;51.808;7.478;2023-05-10T13:33:57;100682.00;;;22.20
12854;BMP180;6495;51.808;7.478;2023-05-10T13:36:25;100691.00;;;22.30
12854;BMP180;6495;51.808;7.478;2023-05-10T13:38:53;100690.00;;;22.30
12854;BMP180;6495;51.808;7.478;2023-05-10T13:41:22;100697.00;;;22.30
12854;BMP180;6495;51.808;7.478;2023-05-10T13:43:51;100694.00;;;22.50
12854;BMP180;6495;51.808;7.478;2023-05-10T13:46:19;100690.00;;;22.50
12854;BMP180;6495;51.808;7.478;2023-05-10T13:48:49;100689.00;;;22.50
12854;BMP180;6495;51.808;7.478;2023-05-10T13:51:17;100681.00;;;22.50
12854;BMP180;6495;51.808;7.478;2023-05-10T13:53:45;100695.00;;;22.50
12854;BMP180;6495;51.808;7.478;2023-05-10T13:56:15;100678.00;;;22.50
12854;BMP180;6495;51.808;7.478;2023-05-10T13:58:43;100687.00;;;22.60
12854;BMP180;6495;51.808;7.478;2023-05-10T14:01:13;100685.00;;;22.70
12854;BMP180;6495;51.808;7.478;2023-05-10T14:03:41;100683.00;;;22.70
12854;BMP180;6495;51.808;7.478;2023-05-10T14:06:10;100684.00;;;22.70
12854;BMP180;6495;51.808;7.478;2023-05-10T14:08:38;100683.00;;;22.80
12854;BMP180;6495;51.808;7.478;2023-05-10T14:11:07;100676.00;;;22.80
12854;BMP180;6495;51.808;7.478;2023-05-10T14:13:35;100682.00;;;22.80
12854;BMP180;6495;51.808;7.478;2023-05-10T14:16:04;100680.00;;;22.80
12854;BMP180;6495;51.808;7.478;2023-05-10T14:18:34;100686.00;;;22.90
12854;BMP180;6495;51.808;7.478;2023-05-10T14:21:03;100683.00;;;23.00
12854;BMP180;6495;51.808;7.478;2023-05-10T14:23:32;100682.00;;;23.10
12854;BMP180;6495;51.808;7.478;2023-05-10T14:26:00;100688.00;;;23.20
12854;BMP180;6495;51.808;7.478;2023-05-10T14:28:30;100686.00;;;23.20
12854;BMP180;6495;51.808;7.478;2023-05-10T14:30:58;100683.00;;;23.20